Time;durP1;ratioP1;P1;durP2;ratioP2;P2;SDS_P1;SDS_P2;PMS_P1;PMS_P2;Temp;Humidity;BMP_temperature;BMP_pressure;BME280_temperature;BME280_humidity;BME280_pressure;Samples;Min_cycle;Max_cycle;Signal;HPM_P1;HPM_P2
2022/08/23 00:02:25;;;;;;;8.45;3.45;;;22.10;99.90;;;;;;5031492;28;20049;-80
2022/08/23 00:04:53;;;;;;;5.43;2.15;;;22.00;99.90;;;;;;5018087;28;20053;-79
2022/08/23 00:07:37;;;;;;;5.47;2.00;;;22.10;99.90;;;;;;5030693;28;20049;-79
2022/08/23 00:10:07;;;;;;;3.20;2.40;;;22.00;99.90;;;;;;5036276;28;20049;-79
2022/08/23 00:12:34;;;;;;;5.35;2.10;;;22.00;99.90;;;;;;5037053;28;20056;-79
2022/08/23 00:15:02;;;;;;;3.50;2.30;;;22.00;99.90;;;;;;5030857;28;20057;-79
2022/08/23 00:17:29;;;;;;;6.70;2.90;;;22.00;99.90;;;;;;5037140;28;20064;-79
2022/08/23 00:20:05;;;;;;;7.03;3.10;;;21.90;99.90;;;;;;5036793;28;20053;-77
2022/08/23 00:22:32;;;;;;;7.32;2.53;;;21.90;99.90;;;;;;5017565;28;20092;-79
2022/08/23 00:24:59;;;;;;;7.55;3.60;;;21.80;99.90;;;;;;5017155;28;20492;-78
2022/08/23 00:27:27;;;;;;;11.70;2.88;;;21.70;99.90;;;;;;5031450;28;20042;-80
2022/08/23 00:29:56;;;;;;;4.68;2.30;;;21.70;99.90;;;;;;5017748;28;20088;-79
2022/08/23 00:32:32;;;;;;;5.35;4.03;;;21.70;99.90;;;;;;5018813;28;20081;-79
2022/08/23 00:35:00;;;;;;;4.57;2.53;;;21.70;99.90;;;;;;5019259;28;20085;-79
2022/08/23 00:37:28;;;;;;;5.68;2.58;;;21.60;99.90;;;;;;5018369;28;20104;-79
2022/08/23 00:39:55;;;;;;;3.67;2.30;;;21.50;99.90;;;;;;5037380;28;20499;-78
2022/08/23 00:47:56;;;;;;;6.38;3.45;;;21.40;99.90;;;;;;5035026;28;20053;-79
2022/08/23 00:50:35;;;;;;;5.13;2.67;;;21.40;99.90;;;;;;5020949;28;20081;-79
2022/08/23 00:53:27;;;;;;;5.63;2.40;;;21.30;99.90;;;;;;5020478;28;20052;-78
2022/08/23 00:55:57;;;;;;;4.05;2.50;;;21.30;99.90;;;;;;5033774;28;20460;-79
2022/08/23 00:58:25;;;;;;;3.28;2.40;;;21.20;99.90;;;;;;5022764;28;20088;-79
2022/08/23 01:00:54;;;;;;;6.40;2.70;;;21.20;99.90;;;;;;5021845;28;20137;-78
2022/08/23 01:03:23;;;;;;;5.68;3.35;;;21.10;99.90;;;;;;5021607;28;20085;-78
2022/08/23 01:06:02;;;;;;;5.70;2.92;;;21.00;99.90;;;;;;5021843;28;20053;-78
2022/08/23 01:08:31;;;;;;;4.30;2.50;;;21.00;99.90;;;;;;5020890;28;20530;-78
2022/08/23 01:11:06;;;;;;;6.45;2.53;;;20.90;99.90;;;;;;5022551;28;20095;-78
2022/08/23 01:14:10;;;;;;;5.05;2.53;;;20.90;99.90;;;;;;5021762;28;20049;-78
2022/08/23 01:16:52;;;;;;;6.55;3.55;;;20.90;99.90;;;;;;5014185;28;20081;-78
2022/08/23 01:19:29;;;;;;;5.68;3.28;;;20.80;99.90;;;;;;5031497;28;20128;-79
2022/08/23 01:22:24;;;;;;;7.15;3.67;;;20.80;99.90;;;;;;5029518;28;20518;-77
2022/08/23 01:24:52;;;;;;;4.18;2.47;;;20.80;99.90;;;;;;5020740;28;20046;-79
2022/08/23 01:27:36;;;;;;;4.65;2.50;;;20.70;99.90;;;;;;5029096;28;20049;-79
2022/08/23 01:30:09;;;;;;;6.05;2.97;;;20.70;99.90;;;;;;5022268;28;20046;-79
2022/08/23 01:32:43;;;;;;;4.60;2.67;;;20.60;99.90;;;;;;5024664;28;20042;-78
2022/08/23 01:35:10;;;;;;;4.65;3.17;;;20.60;99.90;;;;;;5022954;28;20061;-79
2022/08/23 01:37:37;;;;;;;4.93;2.85;;;20.50;99.90;;;;;;5022676;28;20141;-79
2022/08/23 01:40:05;;;;;;;5.18;2.90;;;20.40;99.90;;;;;;5022089;28;20136;-79
2022/08/23 01:42:31;;;;;;;4.38;2.88;;;20.40;99.90;;;;;;5028230;28;20053;-78
2022/08/23 01:44:58;;;;;;;4.32;2.42;;;20.30;99.90;;;;;;5029224;28;20136;-79
2022/08/23 01:47:25;;;;;;;4.38;2.70;;;20.20;99.90;;;;;;5031288;28;20064;-78
2022/08/23 01:49:52;;;;;;;5.45;2.83;;;20.20;99.90;;;;;;5023198;28;20129;-78
2022/08/23 01:52:19;;;;;;;3.47;2.35;;;20.20;99.90;;;;;;5020211;28;20092;-77
2022/08/23 01:54:46;;;;;;;3.58;2.70;;;20.20;99.90;;;;;;5021091;28;20073;-78
2022/08/23 01:57:13;;;;;;;4.57;2.70;;;20.20;99.90;;;;;;5023383;28;20050;-79
2022/08/23 01:59:42;;;;;;;5.80;2.85;;;20.20;99.90;;;;;;5030595;28;20088;-79
2022/08/23 02:02:09;;;;;;;8.13;3.63;;;20.10;99.90;;;;;;5023138;28;20088;-78
2022/08/23 02:04:35;;;;;;;4.45;2.88;;;20.00;99.90;;;;;;5024857;28;20046;-79
2022/08/23 02:07:02;;;;;;;5.57;3.10;;;20.00;99.90;;;;;;5024708;28;20073;-79
2022/08/23 02:09:30;;;;;;;6.13;2.85;;;19.90;99.90;;;;;;5024081;28;20074;-77
2022/08/23 02:11:58;;;;;;;3.80;2.22;;;19.90;99.90;;;;;;5025340;28;20050;-79
2022/08/23 02:14:25;;;;;;;4.75;2.33;;;19.90;99.90;;;;;;5025322;28;20052;-78
2022/08/23 02:16:54;;;;;;;5.97;3.00;;;19.70;99.90;;;;;;5026494;28;20054;-78
2022/08/23 02:19:30;;;;;;;5.82;3.33;;;19.70;99.90;;;;;;5024155;28;20049;-79
2022/08/23 02:21:56;;;;;;;5.38;2.78;;;19.70;99.90;;;;;;5026250;28;20137;-78
2022/08/23 02:24:24;;;;;;;5.70;2.90;;;19.60;99.90;;;;;;5015395;28;20050;-79
2022/08/23 02:26:56;;;;;;;9.63;3.05;;;19.60;99.90;;;;;;5015022;28;20480;-79
2022/08/23 02:29:25;;;;;;;3.95;2.90;;;19.70;99.90;;;;;;5023356;28;20474;-78
2022/08/23 02:31:52;;;;;;;5.38;2.88;;;19.70;99.90;;;;;;5024491;28;20045;-79
2022/08/23 02:34:21;;;;;;;4.65;2.90;;;19.60;99.90;;;;;;5032921;28;20076;-79
2022/08/23 02:37:03;;;;;;;6.53;2.85;;;19.60;99.90;;;;;;5026541;28;20053;-77
2022/08/23 02:39:30;;;;;;;5.63;2.72;;;19.50;99.90;;;;;;5027616;28;20115;-78
2022/08/23 02:41:57;;;;;;;4.80;3.05;;;19.50;99.90;;;;;;5026526;28;20056;-78
2022/08/23 02:44:23;;;;;;;7.00;2.78;;;19.50;99.90;;;;;;5027803;28;20488;-78
2022/08/23 02:46:50;;;;;;;4.65;2.60;;;19.50;99.90;;;;;;5015163;28;20049;-78
2022/08/23 02:49:18;;;;;;;3.47;3.15;;;19.50;99.90;;;;;;5021722;28;20073;-79
2022/08/23 02:51:44;;;;;;;6.30;2.53;;;19.50;99.90;;;;;;5028877;28;20054;-77
2022/08/23 02:54:12;;;;;;;3.67;2.45;;;19.40;99.90;;;;;;5027319;28;20095;-79
2022/08/23 02:56:39;;;;;;;6.95;3.15;;;19.30;99.90;;;;;;5029085;28;20061;-78
2022/08/23 02:59:06;;;;;;;5.38;2.88;;;19.30;99.90;;;;;;5025992;28;20053;-78
2022/08/23 03:01:36;;;;;;;4.95;2.85;;;19.20;99.90;;;;;;5030145;28;20049;-78
2022/08/23 03:04:06;;;;;;;4.32;3.05;;;19.10;99.90;;;;;;5030203;28;20054;-78
2022/08/23 03:06:34;;;;;;;5.97;2.95;;;19.00;99.90;;;;;;5032107;28;20045;-79
2022/08/23 03:09:02;;;;;;;8.85;2.95;;;19.00;99.90;;;;;;5033046;28;20446;-78
2022/08/23 03:11:29;;;;;;;6.45;3.03;;;19.00;99.90;;;;;;5032678;28;20072;-78
2022/08/23 03:13:56;;;;;;;6.18;3.22;;;19.00;99.90;;;;;;5033084;28;20046;-78
2022/08/23 03:16:23;;;;;;;3.78;2.92;;;18.90;99.90;;;;;;5033304;28;20049;-79
2022/08/23 03:18:51;;;;;;;5.72;3.10;;;18.90;99.90;;;;;;5032664;28;20470;-79
2022/08/23 03:21:19;;;;;;;6.40;3.53;;;18.80;99.90;;;;;;5017571;28;20053;-79
2022/08/23 03:23:47;;;;;;;4.25;3.22;;;18.80;99.90;;;;;;5020076;28;20400;-78
2022/08/23 03:26:15;;;;;;;5.32;2.80;;;18.80;99.90;;;;;;5018140;28;20050;-79
2022/08/23 03:28:43;;;;;;;12.55;4.00;;;18.80;99.90;;;;;;5017892;28;20499;-79
2022/08/23 03:31:11;;;;;;;4.10;2.80;;;18.80;99.90;;;;;;5027987;28;20053;-79
2022/08/23 03:33:39;;;;;;;4.63;2.90;;;18.80;99.90;;;;;;5037844;28;20423;-78
2022/08/23 03:36:08;;;;;;;6.22;2.88;;;18.80;99.90;;;;;;5037984;28;20100;-78
2022/08/23 03:38:37;;;;;;;4.30;2.50;;;18.90;99.90;;;;;;5034647;28;20136;-78
2022/08/23 03:41:04;;;;;;;7.78;2.95;;;18.80;99.90;;;;;;5036081;28;20498;-79
2022/08/23 03:43:32;;;;;;;6.13;3.10;;;18.80;99.90;;;;;;5028315;28;20053;-79
2022/08/23 03:45:59;;;;;;;7.15;3.15;;;18.80;99.90;;;;;;5027145;28;20077;-79
2022/08/23 03:48:26;;;;;;;6.95;3.30;;;18.80;99.90;;;;;;5019490;28;20566;-78
2022/08/23 03:50:53;;;;;;;4.45;2.80;;;18.80;99.90;;;;;;5035508;28;20128;-79
2022/08/23 03:53:22;;;;;;;4.13;2.92;;;18.80;99.90;;;;;;5035160;28;20049;-79
2022/08/23 03:55:50;;;;;;;3.72;2.83;;;18.80;99.90;;;;;;5034725;28;20132;-78
2022/08/23 03:58:18;;;;;;;5.65;3.03;;;18.80;99.90;;;;;;5036037;28;20180;-78
2022/08/23 04:00:44;;;;;;;4.72;3.10;;;18.80;99.90;;;;;;5035784;28;20088;-78
2022/08/23 04:03:11;;;;;;;7.05;2.97;;;18.80;99.90;;;;;;5036449;28;20136;-79
2022/08/23 04:05:38;;;;;;;4.28;3.22;;;18.80;99.90;;;;;;5018486;28;20469;-79
2022/08/23 04:08:09;;;;;;;3.90;3.13;;;18.80;99.90;;;;;;5019936;28;20046;-78
2022/08/23 04:10:37;;;;;;;5.57;3.50;;;18.80;99.90;;;;;;5033743;28;20085;-78
2022/08/23 04:13:05;;;;;;;6.53;3.50;;;18.70;99.90;;;;;;5038015;28;20080;-79
2022/08/23 04:15:32;;;;;;;5.00;3.08;;;18.70;99.90;;;;;;5032091;28;20471;-78
2022/08/23 04:18:00;;;;;;;5.40;3.33;;;18.70;99.90;;;;;;5019822;28;20078;-78
2022/08/23 04:20:27;;;;;;;4.35;2.47;;;18.70;99.90;;;;;;5019989;28;20096;-79
2022/08/23 04:22:55;;;;;;;9.18;3.40;;;18.70;99.90;;;;;;5021079;28;20046;-78
2022/08/23 04:25:23;;;;;;;4.65;2.30;;;18.70;99.90;;;;;;5019656;28;20129;-79
2022/08/23 04:28:01;;;;;;;4.38;2.67;;;18.70;99.90;;;;;;5039662;28;20046;-78
2022/08/23 04:30:28;;;;;;;8.10;3.53;;;18.60;99.90;;;;;;5023447;28;20046;-78
2022/08/23 04:32:55;;;;;;;7.20;2.85;;;18.60;99.90;;;;;;5021577;28;20117;-78
2022/08/23 04:35:22;;;;;;;3.40;2.30;;;18.60;99.90;;;;;;5019214;28;20045;-79
2022/08/23 04:37:49;;;;;;;4.20;3.00;;;18.50;99.90;;;;;;5019948;28;20050;-79
2022/08/23 04:43:02;;;;;;;4.65;3.10;;;18.50;99.90;;;;;;5021870;28;20045;-79
2022/08/23 04:45:31;;;;;;;3.83;2.65;;;18.50;99.90;;;;;;5018399;28;20089;-78
2022/08/23 04:47:57;;;;;;;6.05;2.58;;;18.40;99.90;;;;;;5019247;28;20534;-78
2022/08/23 04:50:25;;;;;;;9.18;2.92;;;18.50;99.90;;;;;;5020770;28;20132;-78
2022/08/23 04:52:51;;;;;;;7.28;2.63;;;18.50;99.90;;;;;;5021864;28;20088;-79
2022/08/23 04:55:18;;;;;;;7.20;3.35;;;18.50;99.90;;;;;;5020744;28;20133;-78
2022/08/23 04:57:45;;;;;;;6.05;3.38;;;18.50;99.90;;;;;;5024380;28;20552;-78
2022/08/23 05:00:13;;;;;;;8.77;5.95;;;18.40;99.90;;;;;;5027068;28;20089;-78
2022/08/23 05:02:41;;;;;;;9.63;6.88;;;18.40;99.90;;;;;;5022379;28;20053;-78
2022/08/23 05:05:10;;;;;;;7.53;4.90;;;18.30;99.90;;;;;;5022628;28;20085;-78
2022/08/23 05:07:38;;;;;;;9.50;5.10;;;18.40;99.90;;;;;;5022422;28;20091;-78
2022/08/23 05:10:11;;;;;;;7.25;4.88;;;18.30;99.90;;;;;;5032589;28;20045;-78
2022/08/23 05:12:39;;;;;;;7.10;3.33;;;18.20;99.90;;;;;;5033247;28;20049;-79
2022/08/23 05:15:08;;;;;;;6.90;4.30;;;18.20;99.90;;;;;;5033339;28;20050;-78
2022/08/23 05:17:36;;;;;;;6.47;3.70;;;18.30;99.90;;;;;;5023064;28;20245;-79
2022/08/23 05:20:07;;;;;;;6.57;3.33;;;18.20;99.90;;;;;;5020959;28;20064;-78
2022/08/23 05:22:37;;;;;;;4.22;3.35;;;18.20;99.90;;;;;;5028985;28;20050;-77
2022/08/23 05:25:04;;;;;;;3.58;2.65;;;18.30;99.90;;;;;;5022811;28;20085;-79
2022/08/23 05:27:30;;;;;;;4.35;3.30;;;18.30;99.90;;;;;;5031315;28;20499;-79
2022/08/23 05:29:57;;;;;;;5.88;2.88;;;18.30;99.90;;;;;;5029328;28;20081;-78
2022/08/23 05:32:24;;;;;;;5.53;2.88;;;18.30;99.90;;;;;;5023374;28;20054;-78
2022/08/23 05:34:53;;;;;;;4.22;3.00;;;18.40;99.90;;;;;;5022827;28;20125;-78
2022/08/23 05:37:19;;;;;;;3.20;2.42;;;18.40;99.90;;;;;;5022804;28;20132;-78
2022/08/23 05:39:46;;;;;;;5.43;2.92;;;18.40;99.90;;;;;;5021780;28;20128;-79
2022/08/23 05:42:15;;;;;;;7.80;2.83;;;18.50;99.90;;;;;;5022132;28;20511;-79
2022/08/23 05:44:43;;;;;;;3.72;2.60;;;18.50;99.90;;;;;;5028084;28;20050;-79
2022/08/23 05:47:11;;;;;;;5.88;2.70;;;18.60;99.90;;;;;;5028048;28;20081;-79
2022/08/23 05:49:41;;;;;;;5.07;2.35;;;18.70;99.90;;;;;;5023777;28;20124;-79
2022/08/23 05:52:11;;;;;;;4.85;2.40;;;18.70;99.90;;;;;;5028679;28;20046;-78
2022/08/23 05:54:38;;;;;;;4.60;2.78;;;18.70;99.90;;;;;;5027505;28;20110;-79
2022/08/23 05:57:05;;;;;;;2.90;2.15;;;18.70;99.90;;;;;;5024074;28;20500;-79
2022/08/23 05:59:33;;;;;;;7.78;3.03;;;18.80;99.90;;;;;;5026248;28;20056;-78
2022/08/23 06:02:00;;;;;;;8.73;2.50;;;18.80;99.90;;;;;;5023196;28;20425;-78
2022/08/23 06:04:27;;;;;;;4.57;2.55;;;18.80;99.90;;;;;;5023917;28;20133;-78
2022/08/23 06:06:57;;;;;;;8.45;2.58;;;18.90;99.90;;;;;;5024967;28;20101;-78
2022/08/23 06:09:25;;;;;;;7.88;2.50;;;18.90;99.90;;;;;;5023619;28;20092;-80
2022/08/23 06:11:52;;;;;;;5.72;2.63;;;18.90;99.90;;;;;;5023769;28;20050;-79
2022/08/23 06:14:18;;;;;;;6.75;2.78;;;19.00;99.90;;;;;;5025991;28;20080;-78
2022/08/23 06:16:47;;;;;;;7.13;2.22;;;18.90;99.90;;;;;;5028187;28;20049;-77
2022/08/23 06:19:19;;;;;;;5.65;2.55;;;19.00;99.90;;;;;;5027966;28;20045;-79
2022/08/23 06:21:46;;;;;;;4.70;2.60;;;19.00;99.90;;;;;;5027136;28;20578;-79
2022/08/23 06:24:13;;;;;;;4.80;2.42;;;19.10;99.90;;;;;;5027925;28;20530;-78
2022/08/23 06:26:42;;;;;;;6.30;2.75;;;19.10;99.90;;;;;;5027506;28;20438;-78
2022/08/23 06:29:11;;;;;;;5.60;2.63;;;19.20;99.90;;;;;;5026318;28;20049;-79
2022/08/23 06:31:44;;;;;;;4.80;2.42;;;19.20;99.90;;;;;;5027990;28;20049;-78
2022/08/23 06:34:12;;;;;;;7.75;2.70;;;19.20;99.90;;;;;;5025189;28;20111;-78
2022/08/23 06:36:39;;;;;;;5.00;2.65;;;19.20;99.90;;;;;;5029794;28;20100;-78
2022/08/23 06:39:08;;;;;;;5.22;2.75;;;19.30;99.90;;;;;;5030009;28;20092;-79
2022/08/23 06:41:34;;;;;;;5.20;2.78;;;19.30;99.90;;;;;;5026081;28;20053;-78
2022/08/23 06:44:02;;;;;;;4.40;2.47;;;19.40;99.90;;;;;;5026238;28;20059;-79
2022/08/23 06:46:29;;;;;;;6.45;2.88;;;19.40;99.90;;;;;;5026344;28;20049;-79
2022/08/23 06:48:58;;;;;;;4.30;2.90;;;19.50;99.90;;;;;;5025630;28;20045;-78
2022/08/23 06:51:29;;;;;;;5.00;3.30;;;19.50;99.90;;;;;;5026467;28;20045;-78
2022/08/23 06:53:58;;;;;;;5.75;3.25;;;19.50;99.90;;;;;;5025206;28;20049;-78
2022/08/23 06:56:29;;;;;;;5.63;2.83;;;19.60;99.90;;;;;;5025761;28;20045;-79
2022/08/23 06:58:56;;;;;;;6.05;3.22;;;19.60;99.90;;;;;;5018148;28;20085;-79
2022/08/23 07:01:57;;;;;;;3.80;3.22;;;19.70;99.90;;;;;;5018675;28;20046;-78
2022/08/23 07:04:33;;;;;;;5.70;3.38;;;19.70;99.90;;;;;;5024377;28;20057;-79
2022/08/23 07:07:01;;;;;;;9.60;3.25;;;19.80;99.90;;;;;;5024874;28;20141;-77
2022/08/23 07:09:30;;;;;;;5.75;3.33;;;19.80;99.90;;;;;;5023382;28;20049;-79
2022/08/23 07:11:58;;;;;;;3.53;3.22;;;19.90;99.90;;;;;;5026185;28;20512;-77
2022/08/23 07:14:26;;;;;;;5.13;3.10;;;20.00;99.90;;;;;;5047603;22;20183;-74
2022/08/23 07:16:56;;;;;;;9.07;3.22;;;20.00;99.90;;;;;;5029393;28;20132;-74
2022/08/23 07:19:27;;;;;;;7.65;3.28;;;20.00;99.90;;;;;;5027697;28;20497;-74
2022/08/23 07:21:56;;;;;;;4.43;2.70;;;20.10;99.90;;;;;;5029650;28;20054;-74
2022/08/23 07:24:24;;;;;;;5.65;3.35;;;20.10;99.90;;;;;;5029292;28;20084;-74
2022/08/23 07:26:59;;;;;;;7.07;3.63;;;20.20;99.90;;;;;;5026208;28;20081;-75
2022/08/23 07:29:27;;;;;;;3.92;3.13;;;20.20;99.90;;;;;;5028795;28;20100;-74
2022/08/23 07:31:55;;;;;;;8.13;3.65;;;20.20;99.90;;;;;;5029282;28;20450;-74
2022/08/23 07:34:23;;;;;;;4.97;2.85;;;20.20;99.90;;;;;;5030498;28;20088;-75
2022/08/23 07:36:52;;;;;;;8.77;3.40;;;20.30;99.90;;;;;;5028805;28;20488;-74
2022/08/23 07:39:21;;;;;;;7.07;3.05;;;20.40;99.90;;;;;;5030297;28;20077;-74
2022/08/23 07:41:49;;;;;;;4.68;3.20;;;20.40;99.90;;;;;;5028793;28;20075;-74
2022/08/23 07:44:16;;;;;;;7.97;3.58;;;20.40;99.90;;;;;;5021547;28;20659;-74
2022/08/23 07:46:45;;;;;;;6.00;3.42;;;20.50;99.90;;;;;;5027024;28;20124;-73
2022/08/23 07:49:14;;;;;;;5.97;3.13;;;20.50;99.90;;;;;;5030551;28;20095;-74
2022/08/23 07:51:44;;;;;;;6.20;3.08;;;20.60;99.90;;;;;;5030210;28;20132;-75
2022/08/23 07:54:11;;;;;;;7.47;3.35;;;20.60;99.90;;;;;;5029466;28;20061;-73
2022/08/23 07:56:39;;;;;;;5.95;2.90;;;20.70;99.90;;;;;;5031860;28;20045;-73
2022/08/23 07:59:07;;;;;;;5.43;3.53;;;20.70;99.90;;;;;;5031814;28;20466;-73
2022/08/23 08:01:34;;;;;;;5.07;3.35;;;20.80;99.90;;;;;;5024961;28;20136;-73
2022/08/23 08:04:05;;;;;;;7.78;3.30;;;20.80;99.90;;;;;;5032262;28;20414;-74
2022/08/23 08:06:46;;;;;;;6.65;3.17;;;20.80;99.90;;;;;;5032124;28;20478;-73
2022/08/23 08:09:33;;;;;;;;;;;20.90;99.90;;;;;;5032419;28;20521;-73
2022/08/23 08:11:59;;;;;;;3.78;3.10;;;21.00;99.90;;;;;;5032691;28;20063;-73
2022/08/23 08:14:27;;;;;;;5.00;3.25;;;21.00;99.90;;;;;;5032679;28;20107;-73
2022/08/23 08:16:56;;;;;;;8.38;3.15;;;21.10;99.90;;;;;;5019653;28;20093;-74
2022/08/23 08:19:24;;;;;;;5.82;3.58;;;21.20;99.90;;;;;;5009723;28;20094;-73
2022/08/23 08:21:51;;;;;;;6.43;3.13;;;21.20;99.90;;;;;;5013604;28;20137;-73
2022/08/23 08:24:18;;;;;;;5.00;2.90;;;21.30;99.90;;;;;;5013622;28;20081;-73
2022/08/23 08:26:45;;;;;;;6.93;3.00;;;21.30;99.90;;;;;;5009173;28;20128;-73
2022/08/23 08:29:13;;;;;;;4.40;2.72;;;21.40;99.90;;;;;;5013741;28;20133;-73
2022/08/23 08:31:41;;;;;;;6.22;2.50;;;21.40;99.90;;;;;;5002866;28;20050;-73
2022/08/23 08:34:08;;;;;;;5.35;2.63;;;21.40;99.90;;;;;;5011088;28;20050;-73
2022/08/23 08:36:41;;;;;;;7.85;3.22;;;21.50;99.90;;;;;;5012976;28;20133;-73
2022/08/23 08:39:11;;;;;;;7.82;2.63;;;21.50;99.90;;;;;;5024737;28;20050;-73
2022/08/23 08:42:05;;;;;;;8.02;3.22;;;21.60;99.90;;;;;;5014843;28;20162;-73
2022/08/23 08:44:51;;;;;;;6.43;3.92;;;21.60;99.90;;;;;;5014882;28;20045;-74
2022/08/23 08:47:26;;;;;;;9.35;3.40;;;21.70;99.90;;;;;;5011123;28;20046;-73
2022/08/23 08:50:27;;;;;;;4.50;2.60;;;21.80;99.90;;;;;;5014809;28;20042;-71
2022/08/23 08:52:58;;;;;;;;;;;21.80;99.90;;;;;;5012665;28;20571;-73
2022/08/23 08:55:32;;;;;;;5.70;2.95;;;21.80;99.90;;;;;;5014525;28;20339;-74
2022/08/23 08:58:01;;;;;;;4.78;2.80;;;21.80;99.90;;;;;;5013252;28;20141;-75
2022/08/23 09:00:32;;;;;;;5.13;2.58;;;21.90;99.90;;;;;;5015874;28;20049;-73
2022/08/23 09:03:02;;;;;;;4.28;2.60;;;22.00;99.90;;;;;;5013031;28;20663;-75
2022/08/23 09:05:38;;;;;;;5.18;3.03;;;22.00;99.90;;;;;;5016100;28;20058;-75
2022/08/23 09:08:22;;;;;;;3.50;2.45;;;22.10;99.90;;;;;;5014255;28;20045;-74
2022/08/23 09:10:49;;;;;;;4.22;2.88;;;22.20;99.90;;;;;;5014139;28;20594;-74
2022/08/23 09:13:19;;;;;;;7.97;3.03;;;22.30;99.90;;;;;;5016393;28;20045;-73
2022/08/23 09:15:57;;;;;;;;;;;22.30;99.90;;;;;;5014556;28;20073;-73
2022/08/23 09:18:24;;;;;;;6.63;3.10;;;22.30;99.90;;;;;;5016019;28;20335;-73
2022/08/23 09:20:53;;;;;;;4.25;2.63;;;22.30;99.90;;;;;;5017040;28;20073;-73
2022/08/23 09:23:30;;;;;;;3.72;2.40;;;22.40;99.90;;;;;;5017484;28;20140;-73
2022/08/23 09:26:00;;;;;;;5.68;2.85;;;22.40;99.90;;;;;;5015567;28;20582;-73
2022/08/23 09:28:34;;;;;;;4.63;2.72;;;22.50;99.90;;;;;;5013793;28;20120;-73
2022/08/23 09:31:02;;;;;;;7.38;2.80;;;22.60;99.90;;;;;;5016446;28;20073;-73
2022/08/23 09:33:39;;;;;;;4.63;2.50;;;22.60;99.90;;;;;;5016658;28;20104;-74
2022/08/23 09:36:17;;;;;;;9.43;2.88;;;22.60;99.90;;;;;;5016155;28;20095;-73
2022/08/23 09:38:57;;;;;;;6.70;2.65;;;22.60;99.90;;;;;;5014591;28;20136;-74
2022/08/23 09:41:35;;;;;;;7.15;3.60;;;22.80;99.90;;;;;;5015501;28;20081;-73
2022/08/23 09:44:05;;;;;;;5.72;3.10;;;22.80;99.90;;;;;;5016929;28;20519;-75
2022/08/23 09:46:37;;;;;;;7.57;3.10;;;22.80;99.90;;;;;;5017313;28;20054;-73
2022/08/23 09:49:27;;;;;;;5.32;2.55;;;22.90;99.90;;;;;;5017019;28;20515;-73
2022/08/23 09:51:57;;;;;;;5.10;2.28;;;22.90;99.90;;;;;;5018741;28;20129;-73
2022/08/23 09:54:33;;;;;;;5.47;2.38;;;22.90;99.90;;;;;;5019042;28;20091;-73
2022/08/23 09:57:03;;;;;;;5.55;2.72;;;22.90;99.90;;;;;;5017097;28;20080;-73
2022/08/23 09:59:43;;;;;;;5.70;2.40;;;23.00;99.90;;;;;;5020088;28;20073;-73
2022/08/23 10:02:23;;;;;;;5.50;2.45;;;23.00;99.90;;;;;;5018832;28;20072;-73
2022/08/23 10:04:59;;;;;;;6.65;2.47;;;23.10;99.90;;;;;;5018549;28;20463;-73
2022/08/23 10:07:37;;;;;;;5.03;2.40;;;23.10;99.90;;;;;;5016936;28;20050;-74
2022/08/23 10:10:25;;;;;;;5.00;2.40;;;23.20;99.90;;;;;;5019077;28;20084;-73
2022/08/23 10:12:53;;;;;;;4.03;2.40;;;23.20;99.90;;;;;;5023004;28;20077;-73
2022/08/23 10:15:39;;;;;;;5.18;2.38;;;23.30;99.90;;;;;;5023043;28;20569;-73
2022/08/23 10:18:32;;;;;;;3.97;2.35;;;23.30;99.90;;;;;;5038311;28;20571;-73
2022/08/23 10:21:06;;;;;;;4.07;2.40;;;23.40;99.90;;;;;;5025169;28;20578;-75
2022/08/23 10:24:06;;;;;;;7.00;2.40;;;23.40;99.90;;;;;;5023442;28;20153;-73
2022/08/23 10:26:38;;;;;;;5.57;2.33;;;23.50;99.90;;;;;;5022885;28;20574;-73
2022/08/23 10:29:37;;;;;;;9.80;3.63;;;23.50;99.90;;;;;;5022598;28;20054;-74
2022/08/23 10:32:13;;;;;;;3.55;2.65;;;23.50;99.90;;;;;;5022274;28;20046;-73
2022/08/23 10:34:54;;;;;;;5.75;2.50;;;23.60;99.90;;;;;;5025374;28;20060;-74
2022/08/23 10:37:30;;;;;;;6.03;2.58;;;23.70;99.90;;;;;;5024759;28;20505;-74
2022/08/23 10:40:12;;;;;;;5.28;3.08;;;23.70;99.90;;;;;;5026418;28;20104;-74
2022/08/23 10:43:02;;;;;;;4.78;2.80;;;23.90;99.90;;;;;;5023971;28;20053;-76
2022/08/23 10:45:33;;;;;;;3.70;2.00;;;23.90;99.90;;;;;;5026604;28;20088;-73
2022/08/23 10:48:28;;;;;;;2.58;1.63;;;24.00;99.90;;;;;;5023957;28;20129;-74
2022/08/23 10:51:15;;;;;;;6.03;2.42;;;23.90;99.90;;;;;;5027539;28;20069;-74
2022/08/23 10:53:58;;;;;;;6.55;2.40;;;23.90;99.90;;;;;;5025363;28;20095;-74
2022/08/23 10:56:27;;;;;;;5.40;2.70;;;24.00;99.90;;;;;;5027717;28;20125;-74
2022/08/23 10:58:58;;;;;;;4.30;2.20;;;24.10;99.90;;;;;;5027123;28;20053;-74
2022/08/23 11:01:59;;;;;;;6.50;2.45;;;24.30;99.90;;;;;;5028120;28;20137;-74
2022/08/23 11:04:37;;;;;;;5.63;2.90;;;24.30;99.90;;;;;;5028273;28;20148;-74
2022/08/23 11:07:27;;;;;;;4.35;2.45;;;24.40;99.90;;;;;;5026616;28;20137;-74
2022/08/23 11:10:11;;;;;;;3.97;2.35;;;24.60;99.90;;;;;;5028320;28;20065;-73
2022/08/23 11:12:56;;;;;;;7.35;2.40;;;24.70;99.90;;;;;;5024093;28;20124;-73
2022/08/23 11:15:42;;;;;;;5.50;1.98;;;24.80;99.90;;;;;;5028219;28;20499;-74
2022/08/23 11:18:32;;;;;;;3.67;2.00;;;24.80;99.90;;;;;;5023613;28;20494;-74
2022/08/23 11:20:59;;;;;;;4.00;2.45;;;24.80;99.90;;;;;;5001091;28;20054;-74
2022/08/23 11:23:40;;;;;;;3.75;2.60;;;24.80;99.90;;;;;;5028159;28;20084;-74
2022/08/23 11:26:38;;;;;;;3.97;2.10;;;24.80;99.90;;;;;;5027175;28;20081;-73
2022/08/23 11:29:05;;;;;;;3.88;2.00;;;24.80;99.90;;;;;;4994639;28;20060;-73
2022/08/23 11:31:48;;;;;;;5.70;2.03;;;24.80;99.90;;;;;;5030089;28;20140;-74
2022/08/23 11:34:22;;;;;;;7.63;2.67;;;24.90;99.90;;;;;;5025296;28;20049;-74
2022/08/23 11:37:49;;;;;;;3.65;2.38;;;24.90;99.90;;;;;;5030531;28;20053;-73
2022/08/23 11:40:41;;;;;;;2.83;1.73;;;24.90;99.90;;;;;;4956048;28;20619;-73
2022/08/23 11:43:20;;;;;;;7.63;2.17;;;24.80;99.90;;;;;;5028519;28;20434;-73
2022/08/23 11:45:47;;;;;;;3.75;2.15;;;24.90;99.90;;;;;;5027389;28;20046;-74
2022/08/23 11:48:26;;;;;;;2.95;2.17;;;24.90;99.90;;;;;;5029360;28;20107;-75
2022/08/23 11:51:05;;;;;;;3.60;2.00;;;25.00;99.90;;;;;;5029893;28;20128;-76
2022/08/23 11:53:53;;;;;;;5.03;2.47;;;25.10;99.90;;;;;;5030881;28;20479;-74
2022/08/23 11:56:51;;;;;;;3.50;2.30;;;25.10;99.90;;;;;;5031388;28;20542;-74
2022/08/23 11:59:37;;;;;;;3.70;2.30;;;25.10;99.90;;;;;;5030749;28;20045;-74
2022/08/23 12:02:38;;;;;;;3.50;2.10;;;25.20;99.90;;;;;;5025910;28;20136;-74
2022/08/23 12:05:12;;;;;;;4.43;1.88;;;25.20;99.90;;;;;;5031968;28;20096;-74
2022/08/23 12:07:46;;;;;;;2.45;1.92;;;25.20;99.90;;;;;;5032114;28;20081;-76
2022/08/23 12:10:41;;;;;;;3.55;2.30;;;25.30;99.90;;;;;;5030975;28;20084;-74
2022/08/23 12:13:17;;;;;;;5.95;2.40;;;25.30;99.90;;;;;;5015464;28;20483;-74
2022/08/23 12:16:02;;;;;;;4.97;2.65;;;25.50;99.90;;;;;;5012757;28;20144;-74
2022/08/23 12:18:35;;;;;;;5.13;2.78;;;25.50;99.90;;;;;;5024191;28;20073;-74
2022/08/23 12:21:05;;;;;;;7.00;2.47;;;25.60;99.90;;;;;;5013232;28;20585;-73
2022/08/23 12:23:43;;;;;;;5.13;2.50;;;25.80;99.90;;;;;;5012197;28;20052;-74
2022/08/23 12:26:36;;;;;;;3.65;2.50;;;25.80;99.90;;;;;;5013486;28;20054;-74
2022/08/23 12:29:17;;;;;;;3.97;2.28;;;26.00;99.90;;;;;;5009616;28;20045;-74
2022/08/23 12:32:01;;;;;;;4.72;2.45;;;26.10;99.90;;;;;;5013004;28;20081;-74
2022/08/23 12:34:44;;;;;;;6.15;2.78;;;26.10;99.90;;;;;;5014079;28;20088;-74
2022/08/23 12:37:35;;;;;;;6.03;2.75;;;26.10;99.90;;;;;;5014461;28;20048;-74
2022/08/23 12:40:12;;;;;;;4.38;2.47;;;26.10;99.90;;;;;;5010771;28;20081;-74
2022/08/23 12:42:40;;;;;;;3.60;2.42;;;26.20;99.90;;;;;;5003582;28;20046;-74
2022/08/23 12:45:14;;;;;;;7.15;2.22;;;26.10;99.90;;;;;;5014513;28;20539;-74
2022/08/23 12:47:43;;;;;;;3.45;2.45;;;26.20;99.90;;;;;;5008433;28;20080;-74
2022/08/23 12:50:31;;;;;;;5.43;2.30;;;26.20;99.90;;;;;;5011384;28;20045;-74
2022/08/23 12:53:03;;;;;;;5.68;2.40;;;26.10;99.90;;;;;;5013129;28;20046;-74
2022/08/23 12:55:38;;;;;;;4.05;2.13;;;26.10;99.90;;;;;;5012180;28;20092;-74
2022/08/23 12:58:05;;;;;;;5.18;2.63;;;26.20;99.90;;;;;;5011391;28;20045;-74
2022/08/23 13:00:38;;;;;;;3.28;2.22;;;26.20;99.90;;;;;;5012625;28;20084;-74
2022/08/23 13:03:17;;;;;;;4.53;2.22;;;26.20;99.90;;;;;;5012365;28;20049;-74
2022/08/23 13:06:05;;;;;;;7.70;2.40;;;26.40;99.90;;;;;;5010233;28;20050;-74
2022/08/23 13:08:37;;;;;;;10.00;2.63;;;26.40;99.90;;;;;;5013045;28;20132;-74
2022/08/23 13:11:06;;;;;;;2.60;2.10;;;26.40;99.90;;;;;;5011046;28;20129;-74
2022/08/23 13:13:37;;;;;;;3.88;2.22;;;26.30;99.90;;;;;;5011991;28;20414;-74
2022/08/23 13:16:23;;;;;;;5.75;2.38;;;26.40;99.90;;;;;;5019949;28;20526;-74
2022/08/23 13:19:13;;;;;;;4.70;2.20;;;26.40;99.90;;;;;;5016063;28;20057;-74
2022/08/23 13:21:40;;;;;;;5.47;2.33;;;26.40;99.90;;;;;;5004983;28;20050;-74
2022/08/23 13:24:32;;;;;;;5.80;2.28;;;26.40;99.90;;;;;;5016438;28;20071;-74
2022/08/23 13:27:21;;;;;;;3.90;2.50;;;26.50;99.90;;;;;;5037071;22;20047;-78